createdAt,value
2018-09-05T00:01:24.389Z,20.50
2018-09-05T00:03:57.803Z,20.60
2018-09-05T00:06:31.286Z,20.60
2018-09-05T00:09:07.064Z,20.40
2018-09-05T00:11:40.533Z,20.40
2018-09-05T00:14:14.064Z,20.40
2018-09-05T00:16:47.467Z,20.50
2018-09-05T00:19:20.868Z,20.40
2018-09-05T00:21:54.290Z,20.20
2018-09-05T00:24:27.703Z,20.10
2018-09-05T00:27:01.151Z,20.30
2018-09-05T00:29:34.683Z,20.40
2018-09-05T00:32:08.156Z,20.40
2018-09-05T00:34:41.611Z,20.40
2018-09-05T00:37:15.064Z,20.40
2018-09-05T00:39:48.494Z,20.20
2018-09-05T00:42:21.938Z,20.30
2018-09-05T00:44:55.338Z,20.30
2018-09-05T00:47:28.771Z,20.20
2018-09-05T00:50:02.197Z,20.10
2018-09-05T00:52:35.634Z,20.10
2018-09-05T00:55:10.152Z,20.10
2018-09-05T00:57:44.759Z,20.10
2018-09-05T01:00:18.183Z,20.20
2018-09-05T01:02:51.574Z,20.20
2018-09-05T01:05:24.962Z,20.10
2018-09-05T01:07:58.434Z,20.20
2018-09-05T01:10:31.833Z,20.10
2018-09-05T01:13:05.248Z,20.10
2018-09-05T01:15:39.859Z,19.70
2018-09-05T01:18:13.254Z,19.80
2018-09-05T01:20:46.738Z,19.90
2018-09-05T01:23:20.138Z,19.90
2018-09-05T01:25:53.531Z,20.00
2018-09-05T01:28:26.930Z,20.00
2018-09-05T01:31:00.457Z,20.00
2018-09-05T01:33:35.094Z,20.10
2018-09-05T01:36:13.902Z,20.10
2018-09-05T01:38:47.347Z,20.00
2018-09-05T01:41:20.810Z,19.90
2018-09-05T01:43:55.326Z,19.90
2018-09-05T01:46:28.767Z,20.00
2018-09-05T01:49:02.223Z,20.00
2018-09-05T01:51:35.662Z,19.90
2018-09-05T01:54:09.123Z,19.90
2018-09-05T01:56:42.558Z,19.90
2018-09-05T01:59:16.010Z,19.90
2018-09-05T02:01:49.898Z,19.90
2018-09-05T02:04:23.402Z,20.00
2018-09-05T02:06:56.892Z,20.00
2018-09-05T02:09:30.367Z,20.00
2018-09-05T02:12:03.934Z,20.10
2018-09-05T02:14:37.391Z,20.10
2018-09-05T02:17:10.839Z,20.10
2018-09-05T02:19:44.362Z,20.10
2018-09-05T02:22:17.790Z,20.10
2018-09-05T02:24:51.252Z,19.90
2018-09-05T02:27:24.706Z,19.90
2018-09-05T02:29:58.198Z,19.90
2018-09-05T02:32:31.647Z,20.00
2018-09-05T02:35:05.463Z,20.00
2018-09-05T02:37:40.030Z,19.90
2018-09-05T02:40:13.634Z,19.90
2018-09-05T02:42:47.048Z,19.90
2018-09-05T02:45:20.487Z,19.70
2018-09-05T02:47:53.898Z,19.60
2018-09-05T02:50:27.349Z,19.70
2018-09-05T02:53:01.807Z,19.80
2018-09-05T02:55:40.452Z,19.70
2018-09-05T02:58:13.859Z,19.80
2018-09-05T03:00:47.331Z,19.80
2018-09-05T03:03:20.762Z,19.80
2018-09-05T03:05:54.366Z,19.80
2018-09-05T03:08:27.783Z,19.70
2018-09-05T03:11:01.220Z,19.70
2018-09-05T03:13:34.686Z,19.50
2018-09-05T03:16:08.126Z,19.30
2018-09-05T03:18:41.547Z,19.10
2018-09-05T03:21:14.987Z,19.30
2018-09-05T03:23:48.395Z,19.40
2018-09-05T03:26:21.835Z,19.40
2018-09-05T03:28:55.239Z,19.50
2018-09-05T03:31:28.711Z,19.50
2018-09-05T03:34:02.263Z,19.50
2018-09-05T03:36:35.866Z,19.50
2018-09-05T03:39:10.587Z,19.50
2018-09-05T03:41:44.031Z,19.50
2018-09-05T03:44:17.635Z,19.30
2018-09-05T03:46:51.115Z,19.30
2018-09-05T03:49:24.513Z,19.40
2018-09-05T03:51:57.929Z,19.30
2018-09-05T03:54:31.324Z,19.40
2018-09-05T03:57:04.848Z,19.40
2018-09-05T03:59:38.239Z,19.40
2018-09-05T04:02:11.644Z,19.30
2018-09-05T04:04:45.043Z,19.40
2018-09-05T04:07:19.525Z,19.00
2018-09-05T04:09:52.906Z,18.60
2018-09-05T04:12:26.763Z,18.70
2018-09-05T04:15:00.146Z,18.90
2018-09-05T04:17:33.562Z,18.90
2018-09-05T04:20:07.670Z,18.90
2018-09-05T04:22:41.099Z,19.30
2018-09-05T04:25:14.546Z,19.40
2018-09-05T04:27:47.992Z,19.20
2018-09-05T04:30:21.487Z,19.10
2018-09-05T04:32:54.951Z,19.10
2018-09-05T04:35:28.415Z,19.20
2018-09-05T04:38:01.842Z,19.20
2018-09-05T04:40:35.270Z,19.20
2018-09-05T04:43:08.763Z,19.10
2018-09-05T04:45:42.178Z,19.10
2018-09-05T04:48:15.641Z,19.00
2018-09-05T04:50:49.072Z,19.00
2018-09-05T04:53:22.739Z,19.00
2018-09-05T04:55:56.164Z,19.00
2018-09-05T04:58:29.633Z,19.00
2018-09-05T05:01:04.168Z,18.90
2018-09-05T05:03:37.719Z,18.90
2018-09-05T05:06:11.161Z,18.90
2018-09-05T05:08:44.586Z,18.90
2018-09-05T05:11:18.030Z,18.80
2018-09-05T05:13:51.485Z,18.80
2018-09-05T05:16:24.942Z,18.80
2018-09-05T05:18:58.347Z,18.70
2018-09-05T05:21:31.823Z,18.60
2018-09-05T05:24:05.262Z,18.40
2018-09-05T05:26:38.705Z,18.20
2018-09-05T05:29:12.191Z,18.00
2018-09-05T05:31:45.687Z,18.10
2018-09-05T05:34:19.468Z,18.30
2018-09-05T05:36:52.931Z,18.40
2018-09-05T05:39:26.431Z,18.50
2018-09-05T05:41:59.872Z,18.60
2018-09-05T05:44:33.315Z,18.60
2018-09-05T05:47:06.771Z,18.70
2018-09-05T05:49:40.223Z,18.70
2018-09-05T05:52:13.682Z,18.70
2018-09-05T05:54:47.075Z,18.70
2018-09-05T05:57:20.503Z,18.70
2018-09-05T05:59:53.888Z,18.80
2018-09-05T06:02:27.285Z,18.90
2018-09-05T06:05:00.695Z,19.00
2018-09-05T06:07:34.110Z,18.90
2018-09-05T06:10:07.556Z,18.90
2018-09-05T06:12:40.963Z,19.00
2018-09-05T06:15:14.350Z,19.00
2018-09-05T06:17:47.785Z,19.00
2018-09-05T06:20:21.243Z,19.00
2018-09-05T06:22:54.644Z,19.00
2018-09-05T06:25:28.047Z,19.00
2018-09-05T06:28:01.460Z,19.10
2018-09-05T06:30:35.100Z,19.10
2018-09-05T06:33:08.513Z,19.10
2018-09-05T06:35:41.952Z,19.50
2018-09-05T06:38:20.278Z,19.50
2018-09-05T06:40:54.019Z,19.50
2018-09-05T06:43:27.435Z,19.40
2018-09-05T06:46:00.863Z,19.50
2018-09-05T06:48:34.303Z,19.50
2018-09-05T06:51:08.437Z,19.60
2018-09-05T06:53:41.859Z,19.60
2018-09-05T06:56:15.248Z,19.60
2018-09-05T06:58:48.673Z,19.50
2018-09-05T07:01:22.130Z,19.50
2018-09-05T07:03:55.566Z,19.50
2018-09-05T07:06:28.959Z,19.60
2018-09-05T07:09:02.392Z,19.70
2018-09-05T07:11:35.828Z,19.80
2018-09-05T07:14:09.368Z,19.80
2018-09-05T07:16:42.704Z,19.90
2018-09-05T07:19:16.141Z,19.90
2018-09-05T07:21:49.545Z,20.00
2018-09-05T07:24:22.975Z,20.10
2018-09-05T07:26:56.359Z,20.10
2018-09-05T07:29:29.767Z,20.20
2018-09-05T07:32:03.160Z,20.20
2018-09-05T07:34:36.567Z,20.30
2018-09-05T07:37:09.976Z,20.40
2018-09-05T07:39:43.408Z,20.40
2018-09-05T07:42:17.830Z,20.50
2018-09-05T07:44:51.268Z,20.60
2018-09-05T07:47:24.954Z,20.70
2018-09-05T07:49:58.377Z,20.80
2018-09-05T07:52:31.811Z,20.90
2018-09-05T07:55:05.340Z,21.00
2018-09-05T07:57:38.738Z,21.10
2018-09-05T08:00:12.239Z,21.10
2018-09-05T08:02:45.661Z,21.10
2018-09-05T08:05:19.067Z,21.30
2018-09-05T08:07:52.503Z,21.30
2018-09-05T08:10:25.908Z,21.40
2018-09-05T08:12:59.309Z,21.30
2018-09-05T08:15:32.728Z,21.50
2018-09-05T08:18:06.216Z,21.50
2018-09-05T08:20:39.610Z,21.50
2018-09-05T08:23:13.261Z,21.60
2018-09-05T08:25:46.685Z,21.60
2018-09-05T08:28:20.136Z,21.60
2018-09-05T08:30:53.552Z,21.60
2018-09-05T08:33:26.934Z,21.80
2018-09-05T08:36:00.705Z,21.80
2018-09-05T08:38:33.960Z,21.70
2018-09-05T08:41:08.739Z,21.90
2018-09-05T08:43:42.287Z,21.80
2018-09-05T08:46:15.591Z,21.80
2018-09-05T08:48:48.979Z,22.00
2018-09-05T09:15:47.271Z,22.50
2018-09-05T09:18:21.751Z,22.50
2018-09-05T09:20:55.139Z,22.60
2018-09-05T09:23:28.557Z,22.70
2018-09-05T09:26:02.006Z,22.90
2018-09-05T09:28:35.448Z,23.00
2018-09-05T09:31:08.872Z,22.80
2018-09-05T09:33:42.274Z,23.00
2018-09-05T09:36:15.690Z,23.10
2018-09-05T09:38:49.843Z,23.30
2018-09-05T09:41:23.252Z,23.20
2018-09-05T09:43:56.669Z,23.30
2018-09-05T09:46:30.061Z,23.40
2018-09-05T09:49:03.526Z,23.40
2018-09-05T09:51:36.931Z,23.60
2018-09-05T09:54:10.352Z,23.60
2018-09-05T09:56:43.771Z,23.60
2018-09-05T09:59:17.161Z,23.70
2018-09-05T10:01:55.774Z,23.90
2018-09-05T10:04:37.618Z,24.00
2018-09-05T10:07:16.276Z,23.90
2018-09-05T10:09:53.879Z,23.90
2018-09-05T10:12:32.491Z,23.90
2018-09-05T10:15:12.558Z,23.90
2018-09-05T10:17:50.212Z,23.90
2018-09-05T10:20:23.603Z,24.00
2018-09-05T10:22:57.019Z,24.20
2018-09-05T10:25:30.451Z,24.30
2018-09-05T10:28:03.879Z,24.30
2018-09-05T10:30:37.282Z,24.40
2018-09-05T10:33:10.703Z,24.40
2018-09-05T10:35:44.122Z,24.40
2018-09-05T10:38:17.532Z,24.60
2018-09-05T10:40:50.939Z,24.60
2018-09-05T10:43:24.355Z,24.80
2018-09-05T10:45:57.755Z,24.80
2018-09-05T10:48:31.204Z,24.70
2018-09-05T10:51:04.806Z,24.90
2018-09-05T10:53:38.215Z,25.00
2018-09-05T10:56:11.598Z,25.00
2018-09-05T10:58:45.155Z,25.10
2018-09-05T11:01:18.592Z,25.20
2018-09-05T11:03:53.032Z,25.30
2018-09-05T11:06:26.635Z,25.40
2018-09-05T11:09:00.128Z,25.60
2018-09-05T11:11:33.528Z,25.50
2018-09-05T11:14:07.356Z,25.60
2018-09-05T11:16:41.091Z,25.70
2018-09-05T11:19:16.612Z,25.60
2018-09-05T11:21:50.012Z,25.60
2018-09-05T11:24:23.442Z,25.60
2018-09-05T11:26:56.827Z,25.50
2018-09-05T11:29:31.746Z,25.60
2018-09-05T11:32:05.139Z,25.60
2018-09-05T11:34:40.255Z,25.60
2018-09-05T11:37:13.659Z,25.70
2018-09-05T11:39:48.838Z,25.60
2018-09-05T11:42:22.227Z,25.80
2018-09-05T11:44:56.414Z,25.90
2018-09-05T11:47:29.868Z,26.00
2018-09-05T11:50:03.440Z,26.00
2018-09-05T11:52:37.938Z,26.10
2018-09-05T11:55:11.359Z,26.30
2018-09-05T11:57:44.791Z,26.40
2018-09-05T12:00:18.222Z,26.50
2018-09-05T12:02:51.604Z,26.40
2018-09-05T12:05:25.011Z,26.50
2018-09-05T12:07:59.513Z,26.60
2018-09-05T12:10:32.930Z,26.70
2018-09-05T12:13:06.319Z,26.80
2018-09-05T12:15:39.731Z,26.70
2018-09-05T12:18:13.122Z,26.80
2018-09-05T12:20:47.639Z,26.70
2018-09-05T12:23:21.034Z,26.70
2018-09-05T12:25:54.482Z,26.90
2018-09-05T12:28:28.983Z,26.90
2018-09-05T12:31:02.403Z,26.80
2018-09-05T12:33:35.802Z,27.00
2018-09-05T12:36:09.330Z,27.10
2018-09-05T12:38:42.718Z,27.20
2018-09-05T12:41:17.164Z,27.30
2018-09-05T12:43:50.571Z,27.30
2018-09-05T12:46:23.991Z,27.40
2018-09-05T12:48:57.386Z,27.30
2018-09-05T12:51:31.008Z,27.20
2018-09-05T12:54:04.831Z,27.10
2018-09-05T12:56:38.259Z,27.00
2018-09-05T12:59:11.745Z,26.90
2018-09-05T13:01:45.153Z,27.00
2018-09-05T13:04:18.588Z,27.00
2018-09-05T13:06:52.026Z,27.00
2018-09-05T13:09:25.443Z,27.10
2018-09-05T13:11:58.880Z,27.10
2018-09-05T13:14:32.275Z,27.10
2018-09-05T13:17:05.703Z,27.00
2018-09-05T13:19:41.159Z,26.90
2018-09-05T13:22:14.582Z,27.00
2018-09-05T13:24:47.974Z,27.10
2018-09-05T13:27:21.413Z,27.10
2018-09-05T13:29:54.834Z,27.10
2018-09-05T13:32:28.287Z,27.30
2018-09-05T13:35:05.231Z,27.20
2018-09-05T13:37:38.743Z,27.30
2018-09-05T13:40:13.175Z,27.40
2018-09-05T13:42:46.575Z,27.60
2018-09-05T13:45:19.966Z,27.70
2018-09-05T13:47:53.391Z,27.80
2018-09-05T13:50:27.234Z,27.60
2018-09-05T13:53:01.685Z,27.70
2018-09-05T13:55:35.091Z,27.90
2018-09-05T13:58:08.508Z,28.00
2018-09-05T14:00:42.045Z,28.00
2018-09-05T14:03:15.534Z,28.00
2018-09-05T14:05:50.996Z,28.00
2018-09-05T14:08:25.043Z,28.10
2018-09-05T14:10:59.605Z,28.20
2018-09-05T14:13:33.059Z,28.20
2018-09-05T14:16:06.650Z,28.30
2018-09-05T14:18:40.051Z,28.30
2018-09-05T14:21:13.483Z,28.30
2018-09-05T14:23:46.955Z,28.10
2018-09-05T14:26:20.349Z,28.20
2018-09-05T14:28:53.791Z,28.30
2018-09-05T14:31:27.215Z,28.50
2018-09-05T14:34:00.675Z,28.50
2018-09-05T14:36:36.228Z,28.50
2018-09-05T14:39:13.607Z,28.60
2018-09-05T14:41:47.036Z,28.70
2018-09-05T14:44:20.443Z,28.60
2018-09-05T14:46:53.847Z,28.60
2018-09-05T14:49:27.255Z,28.40
2018-09-05T14:52:00.663Z,28.60
2018-09-05T14:54:34.075Z,28.70
2018-09-05T14:57:07.519Z,28.90
2018-09-05T14:59:40.959Z,28.80
2018-09-05T15:02:14.347Z,28.90
2018-09-05T15:04:47.770Z,28.90
2018-09-05T15:07:21.216Z,29.00
2018-09-05T15:09:56.716Z,29.00
2018-09-05T15:12:30.115Z,29.10
2018-09-05T15:15:03.612Z,28.90
2018-09-05T15:17:37.008Z,29.10
2018-09-05T15:20:18.158Z,29.10
2018-09-05T15:22:51.556Z,29.30
2018-09-05T15:25:24.991Z,29.30
2018-09-05T15:27:58.389Z,29.10
2018-09-05T15:30:34.937Z,29.10
2018-09-05T15:33:08.971Z,29.00
2018-09-05T15:35:42.395Z,28.90
2018-09-05T15:38:15.843Z,28.80
2018-09-05T15:40:49.308Z,28.80
2018-09-05T15:43:23.271Z,28.80
2018-09-05T15:45:56.756Z,28.50
2018-09-05T15:48:30.220Z,28.40
2018-09-05T15:51:03.669Z,28.40
2018-09-05T15:53:37.072Z,28.30
2018-09-05T15:56:10.531Z,28.40
2018-09-05T15:58:47.334Z,28.50
2018-09-05T16:01:20.761Z,28.50
2018-09-05T16:03:54.198Z,28.50
2018-09-05T16:06:27.610Z,28.60
2018-09-05T16:09:01.204Z,28.60
2018-09-05T16:11:34.616Z,28.60
2018-09-05T16:14:12.488Z,28.70
2018-09-05T16:16:45.897Z,28.80
2018-09-05T16:19:19.305Z,29.00
2018-09-05T16:21:52.746Z,29.00
2018-09-05T16:24:26.149Z,29.10
2018-09-05T16:26:59.572Z,29.20
2018-09-05T16:29:32.985Z,29.40
2018-09-05T16:32:06.494Z,29.40
2018-09-05T16:34:39.929Z,29.40
2018-09-05T16:40:26.138Z,29.60
2018-09-05T16:43:33.514Z,29.50
2018-09-05T16:46:07.629Z,29.60
2018-09-05T16:48:41.068Z,29.60
2018-09-05T16:51:17.263Z,29.70
2018-09-05T16:54:02.119Z,29.80
2018-09-05T16:56:41.923Z,29.70
2018-09-05T16:59:15.339Z,29.80
2018-09-05T17:01:49.815Z,29.80
2018-09-05T17:04:24.319Z,29.80
2018-09-05T17:06:57.763Z,29.80
2018-09-05T17:09:31.166Z,29.80
2018-09-05T17:12:05.665Z,29.80
2018-09-05T17:14:39.096Z,29.80
2018-09-05T17:17:12.549Z,29.80
2018-09-05T17:19:45.942Z,29.80
2018-09-05T17:22:19.357Z,29.80
2018-09-05T17:24:52.802Z,29.80
2018-09-05T17:27:26.350Z,29.70
2018-09-05T17:29:59.764Z,29.60
2018-09-05T17:32:38.970Z,29.60
2018-09-05T17:35:12.417Z,29.50
2018-09-05T17:37:45.847Z,29.30
2018-09-05T17:40:19.328Z,29.10
2018-09-05T17:42:53.066Z,28.80
2018-09-05T17:45:26.487Z,28.60
2018-09-05T17:47:59.967Z,28.50
2018-09-05T17:50:33.360Z,28.50
2018-09-05T17:53:06.808Z,28.50
2018-09-05T17:55:40.213Z,28.50
2018-09-05T17:58:13.695Z,28.50
2018-09-05T18:00:47.128Z,28.40
2018-09-05T18:03:20.543Z,28.40
2018-09-05T18:05:53.939Z,28.30
2018-09-05T18:08:27.507Z,28.10
2018-09-05T18:11:00.896Z,28.00
2018-09-05T18:13:35.351Z,28.00
2018-09-05T18:16:08.785Z,28.00
2018-09-05T18:18:43.492Z,27.90
2018-09-05T18:21:16.886Z,27.80
2018-09-05T18:23:50.305Z,27.70
2018-09-05T18:26:23.772Z,27.70
2018-09-05T18:28:57.172Z,27.60
2018-09-05T18:31:31.666Z,27.60
2018-09-05T18:34:05.084Z,27.50
2018-09-05T18:36:38.497Z,27.50
2018-09-05T18:39:11.900Z,27.40
2018-09-05T18:41:45.368Z,27.30
2018-09-05T18:44:18.775Z,27.30
2018-09-05T18:46:52.254Z,27.20
2018-09-05T18:49:25.683Z,27.10
2018-09-05T18:51:59.283Z,27.00
2018-09-05T18:54:32.692Z,27.00
2018-09-05T18:57:06.100Z,26.90
2018-09-05T18:59:41.630Z,26.90
2018-09-05T19:02:15.114Z,26.80
2018-09-05T19:04:48.626Z,26.70
2018-09-05T19:07:22.082Z,26.70
2018-09-05T19:09:55.650Z,26.70
2018-09-05T19:12:29.038Z,26.60
2018-09-05T19:15:02.442Z,26.50
2018-09-05T19:17:35.842Z,26.60
2018-09-05T19:20:09.322Z,26.50
2018-09-05T19:22:42.716Z,26.50
2018-09-05T19:25:16.140Z,26.40
2018-09-05T19:27:49.735Z,26.30
2018-09-05T19:30:23.222Z,26.30
2018-09-05T19:32:56.614Z,26.30
2018-09-05T19:35:30.090Z,26.20
2018-09-05T19:38:03.510Z,26.10
2018-09-05T19:40:39.033Z,25.90
2018-09-05T19:43:12.434Z,25.90
2018-09-05T19:45:45.945Z,25.90
2018-09-05T19:48:19.415Z,25.80
2018-09-05T19:50:52.824Z,25.50
2018-09-05T19:53:26.349Z,25.10
2018-09-05T19:55:59.826Z,25.10
2018-09-05T19:58:33.303Z,25.10
2018-09-05T20:01:06.830Z,25.10
2018-09-05T20:03:40.479Z,24.90
2018-09-05T20:06:14.974Z,24.90
2018-09-05T20:08:48.435Z,25.00
2018-09-05T20:11:23.767Z,25.00
2018-09-05T20:13:57.243Z,25.00
2018-09-05T20:16:30.696Z,25.00
2018-09-05T20:19:04.154Z,25.00
2018-09-05T20:21:37.552Z,24.90
2018-09-05T20:24:10.960Z,24.90
2018-09-05T20:26:46.403Z,24.90
2018-09-05T20:29:19.798Z,24.80
2018-09-05T20:31:53.243Z,24.80
2018-09-05T20:34:27.718Z,24.40
2018-09-05T20:37:01.151Z,24.60
2018-09-05T20:39:34.653Z,24.40
2018-09-05T20:42:08.043Z,24.40
2018-09-05T20:44:41.447Z,24.50
2018-09-05T20:47:14.900Z,24.60
2018-09-05T20:49:48.372Z,24.60
2018-09-05T20:52:21.767Z,24.60
2018-09-05T20:54:55.211Z,24.70
2018-09-05T20:57:28.595Z,24.70
2018-09-05T21:00:02.080Z,24.70
2018-09-05T21:02:35.475Z,24.60
2018-09-05T21:05:08.923Z,24.60
2018-09-05T21:07:42.312Z,24.60
2018-09-05T21:10:15.723Z,24.60
2018-09-05T21:12:49.107Z,24.60
2018-09-05T21:15:22.510Z,24.50
2018-09-05T21:17:55.906Z,24.50
2018-09-05T21:20:29.314Z,24.50
2018-09-05T21:23:02.758Z,24.40
2018-09-05T21:25:36.167Z,24.40
2018-09-05T21:28:11.620Z,24.40
2018-09-05T21:30:45.026Z,24.40
2018-09-05T21:33:18.418Z,24.40
2018-09-05T21:35:51.855Z,24.40
2018-09-05T21:38:25.251Z,24.30
2018-09-05T21:40:58.664Z,24.30
2018-09-05T21:43:32.086Z,24.30
2018-09-05T21:46:05.708Z,24.20
2018-09-05T21:48:39.102Z,24.20
2018-09-05T21:51:12.542Z,24.20
2018-09-05T21:53:45.922Z,24.10
2018-09-05T21:56:19.326Z,24.00
2018-09-05T21:58:52.731Z,24.00
2018-09-05T22:01:26.143Z,24.00
2018-09-05T22:03:59.534Z,24.00
2018-09-05T22:06:32.930Z,24.00
2018-09-05T22:09:08.547Z,23.90
2018-09-05T22:11:42.062Z,23.90
2018-09-05T22:14:15.406Z,23.90
2018-09-05T22:16:48.810Z,23.70
2018-09-05T22:19:22.208Z,23.70
2018-09-05T22:21:55.610Z,23.70
2018-09-05T22:24:29.063Z,23.80
2018-09-05T22:27:02.471Z,23.70
2018-09-05T22:29:36.901Z,23.70
2018-09-05T22:32:10.302Z,23.60
2018-09-05T22:34:43.682Z,23.70
2018-09-05T22:37:17.123Z,23.70
2018-09-05T22:39:50.655Z,23.40
2018-09-05T22:42:24.058Z,23.50
2018-09-05T22:45:08.721Z,23.20
2018-09-05T22:47:57.472Z,23.30
2018-09-05T22:51:04.687Z,23.40
2018-09-05T22:56:32.189Z,23.40
2018-09-05T22:59:24.576Z,23.40
2018-09-05T23:02:13.683Z,23.30
2018-09-05T23:05:09.125Z,23.20
2018-09-05T23:08:47.336Z,23.30
2018-09-05T23:11:58.800Z,23.30
2018-09-05T23:14:43.315Z,23.20
2018-09-05T23:17:27.830Z,23.30
2018-09-05T23:22:11.869Z,23.20
2018-09-05T23:24:45.303Z,23.30
2018-09-05T23:27:19.839Z,23.10
2018-09-05T23:29:53.267Z,23.00
2018-09-05T23:32:26.667Z,23.00
2018-09-05T23:35:00.108Z,22.80
2018-09-05T23:37:33.528Z,22.40
2018-09-05T23:40:06.964Z,22.30
2018-09-05T23:42:40.379Z,22.20
2018-09-05T23:45:13.804Z,22.20
2018-09-05T23:47:47.192Z,22.30
2018-09-05T23:50:20.599Z,22.40
2018-09-05T23:52:54.005Z,22.30
2018-09-05T23:55:27.432Z,22.30
2018-09-05T23:58:00.828Z,22.40
